Time;durP1;ratioP1;P1;durP2;ratioP2;P2;SDS_P1;SDS_P2;PMS_P1;PMS_P2;Temp;Humidity;BMP_temperature;BMP_pressure;BME280_temperature;BME280_humidity;BME280_pressure;Samples;Min_cycle;Max_cycle;Signal;HPM_P1;HPM_P2
2023/07/23 00:00:31;;;;;;;9.65;5.45;;;;;;;25.28;89.55;65664.75;5049985;28;20239;-56
2023/07/23 00:02:56;;;;;;;14.15;5.03;;;;;;;25.25;89.27;65658.84;5049881;28;20240;-59
2023/07/23 00:05:25;;;;;;;10.55;5.13;;;;;;;25.00;90.79;65634.25;5050189;28;20280;-56
2023/07/23 00:07:54;;;;;;;9.05;4.90;;;;;;;24.85;92.18;65618.16;5049744;28;20214;-55
2023/07/23 00:10:20;;;;;;;13.85;4.90;;;;;;;24.69;91.69;65600.38;5050016;28;21225;-57
2023/07/23 00:12:45;;;;;;;9.07;5.05;;;;;;;24.68;92.51;65599.28;5049965;28;20263;-58
2023/07/23 00:15:12;;;;;;;10.30;4.90;;;;;;;24.74;92.22;65603.38;5049850;28;20745;-57
2023/07/23 00:17:39;;;;;;;10.73;5.22;;;;;;;24.66;92.25;65597.06;5048521;28;20368;-55
2023/07/23 00:20:07;;;;;;;15.45;5.45;;;;;;;24.49;92.91;65577.63;5049710;28;20198;-55
2023/07/23 00:22:33;;;;;;;15.48;5.82;;;;;;;24.39;93.09;65569.69;5049729;28;20217;-54
2023/07/23 00:24:58;;;;;;;12.50;5.70;;;;;;;24.49;93.16;65575.63;5049751;28;20212;-56
2023/07/23 00:27:24;;;;;;;12.13;5.53;;;;;;;24.30;94.18;65554.53;5050005;28;20660;-55
2023/07/23 00:29:49;;;;;;;11.85;5.50;;;;;;;24.58;92.43;65585.63;5031769;28;20594;-56
2023/07/23 00:32:15;;;;;;;7.57;5.15;;;;;;;24.68;91.70;65599.28;5050283;28;20240;-54
2023/07/23 00:34:40;;;;;;;15.00;5.75;;;;;;;24.51;93.28;65575.25;5049556;28;20197;-57
2023/07/23 00:37:06;;;;;;;13.30;5.20;;;;;;;24.43;93.85;65571.53;5049847;28;20628;-56
2023/07/23 00:39:32;;;;;;;10.35;4.97;;;;;;;24.75;92.15;65607.06;5031746;28;20193;-56
2023/07/23 00:41:57;;;;;;;11.65;5.93;;;;;;;24.66;92.18;65597.06;5048191;28;20680;-55
2023/07/23 00:44:23;;;;;;;9.32;5.50;;;;;;;24.51;93.43;65577.84;5050090;28;20193;-55
2023/07/23 00:46:48;;;;;;;12.30;4.88;;;;;;;24.33;94.46;65560.47;5052956;28;20224;-55
2023/07/23 00:49:14;;;;;;;13.73;5.47;;;;;;;24.40;93.68;65565.63;5053149;28;20609;-56
2023/07/23 00:51:40;;;;;;;13.20;5.75;;;;;;;24.26;95.06;65552.69;5034872;28;20221;-56
2023/07/23 00:54:06;;;;;;;8.88;4.80;;;;;;;24.37;94.80;65564.34;5052838;28;20231;-56
2023/07/23 00:56:34;;;;;;;10.80;5.47;;;;;;;24.42;93.07;65573.00;5053171;28;20217;-54
2023/07/23 00:58:59;;;;;;;14.85;5.25;;;;;;;24.21;95.42;65546.59;5052998;28;20209;-56
2023/07/23 01:01:25;;;;;;;13.02;5.90;;;;;;;24.43;94.17;65571.53;5052892;28;20749;-56
2023/07/23 01:03:51;;;;;;;14.25;5.53;;;;;;;24.28;95.25;65554.91;5052595;28;20197;-56
2023/07/23 01:06:18;;;;;;;9.00;5.40;;;;;;;24.66;92.82;65596.50;5052518;28;20283;-55
2023/07/23 01:08:45;;;;;;;15.38;5.93;;;;;;;24.57;93.14;65584.50;5052526;28;20608;-54
2023/07/23 01:11:11;;;;;;;15.10;5.47;;;;;;;24.42;94.56;65570.44;5052753;28;20214;-55
2023/07/23 01:13:39;;;;;;;15.75;6.22;;;;;;;24.47;93.26;65572.84;5052855;28;20193;-54
2023/07/23 01:16:07;;;;;;;10.85;5.68;;;;;;;24.45;93.76;65575.78;5052865;28;20201;-55
2023/07/23 01:18:36;;;;;;;14.65;5.88;;;;;;;24.37;94.73;65561.75;5052550;28;20217;-55
2023/07/23 01:21:02;;;;;;;13.88;5.38;;;;;;;24.29;95.09;65555.47;5052642;28;20202;-55
2023/07/23 01:23:27;;;;;;;14.73;5.65;;;;;;;24.23;95.04;65546.78;5052326;28;20189;-61
2023/07/23 01:25:52;;;;;;;15.20;5.15;;;;;;;24.37;94.47;65564.91;5052450;28;20564;-55
2023/07/23 01:28:18;;;;;;;16.00;6.13;;;;;;;24.33;94.38;65562.47;5052448;28;20217;-56
2023/07/23 01:30:44;;;;;;;11.70;5.38;;;;;;;24.25;94.70;65548.44;5052496;28;20190;-56
2023/07/23 01:33:10;;;;;;;10.98;5.68;;;;;;;24.05;96.50;65529.97;5052249;28;20277;-56
2023/07/23 01:35:35;;;;;;;13.07;5.70;;;;;;;23.95;96.90;65518.88;5052336;28;20213;-54
2023/07/23 01:38:03;;;;;;;11.63;5.22;;;;;;;24.01;94.59;65522.38;5052083;28;20198;-54
2023/07/23 01:40:29;;;;;;;14.50;5.78;;;;;;;24.06;94.21;65530.50;5051351;28;20192;-55
2023/07/23 01:42:55;;;;;;;16.27;5.57;;;;;;;23.95;96.43;65518.31;5050390;28;20213;-55
2023/07/23 01:45:21;;;;;;;11.00;5.50;;;;;;;23.81;98.13;65503.34;5052120;28;20193;-55
2023/07/23 01:47:46;;;;;;;19.17;6.38;;;;;;;23.80;98.44;65504.81;5051845;28;20217;-56
2023/07/23 01:50:12;;;;;;;10.60;5.20;;;;;;;24.10;96.37;65532.94;5051930;28;20550;-55
2023/07/23 01:52:37;;;;;;;11.52;5.05;;;;;;;24.06;96.45;65533.66;5051750;28;20216;-54
2023/07/23 01:55:03;;;;;;;13.27;5.95;;;;;;;24.08;96.58;65530.16;5051251;28;20641;-56
2023/07/23 01:57:29;;;;;;;17.08;5.75;;;;;;;24.10;96.96;65535.50;5051818;28;20316;-56
2023/07/23 01:59:54;;;;;;;13.30;5.78;;;;;;;23.98;97.67;65521.63;5051970;28;20190;-56
2023/07/23 02:02:20;;;;;;;12.13;5.32;;;;;;;24.05;97.42;65532.53;5052092;28;20596;-56
2023/07/23 02:04:45;;;;;;;14.05;5.32;;;;;;;23.76;98.32;65497.78;5051922;28;20194;-56
2023/07/23 02:07:11;;;;;;;9.38;5.85;;;;;;;23.55;99.38;65473.97;5050359;28;20287;-59
2023/07/23 02:09:37;;;;;;;17.17;6.07;;;;;;;23.45;99.99;65460.31;5051677;28;20280;-55
2023/07/23 02:12:02;;;;;;;16.45;6.18;;;;;;;23.31;100.00;65445.34;5051819;28;20248;-55
2023/07/23 02:14:29;;;;;;;12.95;5.75;;;;;;;23.45;99.91;65465.47;5051614;28;20758;-56
2023/07/23 02:16:54;;;;;;;15.35;5.95;;;;;;;23.27;99.61;65440.91;5051487;28;20221;-54
2023/07/23 02:19:27;;;;;;;10.73;5.55;;;;;;;23.21;97.11;65437.38;5051599;28;20246;-54
2023/07/23 02:21:53;;;;;;;10.95;5.15;;;;;;;23.28;97.50;65447.16;5051807;28;20232;-54
2023/07/23 02:24:18;;;;;;;15.57;5.47;;;;;;;23.03;97.97;65417.44;5051678;28;20178;-55
2023/07/23 02:26:43;;;;;;;17.15;6.03;;;;;;;23.16;97.23;65431.28;5051813;28;20604;-55
2023/07/23 02:29:09;;;;;;;15.88;5.90;;;;;;;22.94;97.90;65406.91;5051536;28;20679;-55
2023/07/23 02:31:34;;;;;;;12.85;5.72;;;;;;;23.00;96.21;65413.56;5033535;28;20268;-54
2023/07/23 02:34:00;;;;;;;14.70;5.72;;;;;;;22.89;96.31;65401.38;5051373;28;20188;-55
2023/07/23 02:36:25;;;;;;;14.18;6.32;;;;;;;22.91;95.97;65406.16;5051376;28;20217;-55
2023/07/23 02:38:51;;;;;;;12.07;6.45;;;;;;;22.99;95.66;65413.00;5051345;28;20193;-56
2023/07/23 02:41:16;;;;;;;21.75;6.50;;;;;;;23.01;95.58;65415.22;5051322;28;20280;-55
2023/07/23 02:43:42;;;;;;;16.13;6.47;;;;;;;22.89;95.88;65401.38;5051330;28;20719;-55
2023/07/23 02:46:07;;;;;;;12.48;5.55;;;;;;;22.85;96.58;65397.50;5051641;28;20209;-55
2023/07/23 02:48:40;;;;;;;14.18;6.43;;;;;;;22.80;96.61;65391.97;5051173;28;20733;-56
2023/07/23 02:51:05;;;;;;;15.10;6.50;;;;;;;22.86;98.00;65398.63;5051121;28;20222;-55
2023/07/23 02:53:31;;;;;;;14.18;6.72;;;;;;;22.91;98.07;65406.72;5050992;28;20196;-55
2023/07/23 02:55:56;;;;;;;14.05;6.78;;;;;;;22.90;98.66;65405.63;5051323;28;20315;-55
2023/07/23 02:58:22;;;;;;;12.55;6.82;;;;;;;22.88;99.52;65403.41;5051261;28;20235;-58
2023/07/23 03:00:47;;;;;;;20.35;8.85;;;;;;;22.86;100.00;65398.06;5051047;28;20193;-55
2023/07/23 03:03:13;;;;;;;19.13;8.10;;;;;;;22.96;99.95;65411.72;5051137;28;20198;-54
2023/07/23 03:05:42;;;;;;;20.42;8.85;;;;;;;22.94;100.00;65407.47;5050732;28;20197;-54
2023/07/23 03:08:08;;;;;;;15.48;8.90;;;;;;;22.89;100.00;65401.94;5049880;28;20201;-55
2023/07/23 03:10:33;;;;;;;18.73;9.77;;;;;;;22.95;100.00;65408.56;5050963;28;20661;-56
2023/07/23 03:12:58;;;;;;;16.52;9.63;;;;;;;22.96;100.00;65412.25;5050749;28;20280;-54
2023/07/23 03:15:24;;;;;;;12.45;9.32;;;;;;;22.99;100.00;65413.00;5032997;28;20624;-54
2023/07/23 03:17:53;;;;;;;18.33;10.10;;;;;;;22.96;100.00;65409.13;5050751;28;20724;-56
2023/07/23 03:20:18;;;;;;;19.13;11.07;;;;;;;22.92;100.00;65404.69;5050722;28;20672;-55
2023/07/23 03:22:44;;;;;;;17.95;10.55;;;;;;;22.94;100.00;65407.47;5032710;28;20296;-55
2023/07/23 03:25:10;;;;;;;16.60;11.15;;;;;;;22.83;100.00;65394.72;5050609;28;20178;-54
2023/07/23 03:27:35;;;;;;;16.08;10.98;;;;;;;22.86;100.00;65398.63;5050684;28;20769;-55
2023/07/23 03:30:02;;;;;;;16.73;10.77;;;;;;;22.90;100.00;65405.63;5050384;28;20297;-54
2023/07/23 03:32:28;;;;;;;16.15;10.48;;;;;;;22.88;100.00;65400.28;5050651;28;20213;-55
2023/07/23 03:34:53;;;;;;;17.63;11.15;;;;;;;22.85;100.00;65397.50;5050634;28;20205;-55
2023/07/23 03:37:19;;;;;;;18.90;11.45;;;;;;;22.93;100.00;65405.81;5050597;28;20210;-56
2023/07/23 03:39:44;;;;;;;14.50;10.18;;;;;;;22.89;100.00;65404.50;5050546;28;20233;-54
2023/07/23 03:42:09;;;;;;;13.90;10.05;;;;;;;22.85;100.00;65399.50;5050589;28;20215;-54
2023/07/23 03:44:35;;;;;;;20.25;9.80;;;;;;;22.86;100.00;65398.63;5050501;28;20201;-57
2023/07/23 03:47:09;;;;;;;14.63;11.02;;;;;;;22.84;100.00;65395.84;5050336;28;20221;-55
2023/07/23 03:49:35;;;;;;;18.48;10.80;;;;;;;22.84;100.00;65396.41;5050544;28;20209;-56
2023/07/23 03:52:00;;;;;;;17.58;10.73;;;;;;;22.86;100.00;65398.63;5032114;28;20213;-55
2023/07/23 03:54:26;;;;;;;17.27;10.45;;;;;;;22.84;100.00;65393.84;5050385;28;20173;-57
2023/07/23 03:56:52;;;;;;;16.42;10.48;;;;;;;22.90;100.00;65403.06;5050748;28;20216;-56
2023/07/23 03:59:18;;;;;;;17.70;11.00;;;;;;;22.89;100.00;65404.50;5050142;28;20682;-57
2023/07/23 04:01:44;;;;;;;14.70;10.15;;;;;;;22.87;100.00;65399.16;5050370;28;20308;-55
2023/07/23 04:04:09;;;;;;;15.48;11.25;;;;;;;22.90;100.00;65405.63;5050400;28;20625;-58
2023/07/23 04:06:34;;;;;;;18.73;11.50;;;;;;;22.88;100.00;65403.41;5048728;28;20607;-55
2023/07/23 04:09:00;;;;;;;13.43;10.80;;;;;;;22.89;100.00;65403.94;5050254;28;20675;-55
2023/07/23 04:11:25;;;;;;;18.30;12.90;;;;;;;22.94;100.00;65404.34;5050360;28;20244;-55
2023/07/23 04:13:51;;;;;;;19.42;11.77;;;;;;;22.97;100.00;65410.78;5050118;28;20587;-55
2023/07/23 04:16:16;;;;;;;14.27;10.38;;;;;;;23.01;100.00;65414.66;5050012;28;20225;-55
2023/07/23 04:18:49;;;;;;;15.10;11.95;;;;;;;23.02;99.28;65415.78;5051103;28;20224;-56
2023/07/23 04:21:16;;;;;;;15.35;11.57;;;;;;;23.05;99.06;65421.66;5053737;28;20313;-55
2023/07/23 04:23:48;;;;;;;19.05;12.55;;;;;;;23.13;98.15;65425.38;5053423;28;20184;-55
2023/07/23 04:26:16;;;;;;;14.68;11.55;;;;;;;23.16;97.08;65431.84;5053684;28;20246;-55
2023/07/23 04:28:42;;;;;;;14.60;11.38;;;;;;;23.21;96.92;65439.41;5053561;28;20252;-54
2023/07/23 04:31:08;;;;;;;17.90;11.93;;;;;;;23.24;96.71;65440.16;5053253;28;20245;-55
2023/07/23 04:33:33;;;;;;;14.77;11.23;;;;;;;23.38;95.26;65457.69;5053410;28;20755;-54
2023/07/23 04:35:58;;;;;;;12.23;10.73;;;;;;;23.50;95.07;65465.84;5053423;28;20586;-55
2023/07/23 04:38:25;;;;;;;15.95;11.77;;;;;;;23.46;94.57;65464.53;5053213;28;20530;-55
2023/07/23 04:40:50;;;;;;;16.67;12.02;;;;;;;23.51;94.15;65467.53;5053356;28;20201;-56
2023/07/23 04:43:16;;;;;;;15.50;12.20;;;;;;;23.55;94.10;65477.09;5053281;28;20202;-54
2023/07/23 04:45:41;;;;;;;16.90;11.95;;;;;;;23.53;94.94;65472.31;5053275;28;20554;-55
2023/07/23 04:48:10;;;;;;;21.38;13.13;;;;;;;23.52;94.98;65470.63;5053157;28;20229;-55
2023/07/23 04:50:36;;;;;;;17.02;12.35;;;;;;;23.65;94.23;65485.06;5052906;28;20190;-55
2023/07/23 04:53:02;;;;;;;16.02;12.98;;;;;;;23.58;94.74;65479.84;5051740;28;20578;-54
2023/07/23 04:55:27;;;;;;;18.70;13.85;;;;;;;23.50;94.41;65471.00;5052918;28;20290;-54
2023/07/23 04:57:53;;;;;;;14.82;13.32;;;;;;;23.49;94.53;65467.88;5052993;28;20237;-55
2023/07/23 05:00:19;;;;;;;17.80;13.65;;;;;;;23.64;93.75;65483.94;5052741;28;20676;-55
2023/07/23 05:02:45;;;;;;;16.35;14.18;;;;;;;23.57;94.74;65476.75;5052829;28;20205;-55
2023/07/23 05:05:10;;;;;;;18.95;14.35;;;;;;;23.62;93.88;65479.16;5052716;28;20205;-55
2023/07/23 05:07:35;;;;;;;15.73;13.63;;;;;;;23.64;92.70;65483.94;5052724;28;20664;-56
2023/07/23 05:10:02;;;;;;;17.52;13.18;;;;;;;23.70;92.54;65490.59;5052655;28;20229;-55
2023/07/23 05:12:28;;;;;;;15.95;13.48;;;;;;;23.71;92.55;65491.69;5052487;28;20213;-54
2023/07/23 05:15:08;;;;;;;15.80;13.30;;;;;;;23.70;91.58;65488.56;5052653;28;20198;-55
2023/07/23 05:17:34;;;;;;;20.42;16.02;;;;;;;23.77;91.02;65495.78;5052559;28;20220;-55
2023/07/23 05:19:59;;;;;;;16.35;13.07;;;;;;;23.85;90.21;65507.22;5052689;28;20769;-55
2023/07/23 05:22:24;;;;;;;16.33;12.20;;;;;;;23.89;89.40;65514.78;5052634;28;20561;-55
2023/07/23 05:24:50;;;;;;;15.43;12.05;;;;;;;23.90;89.91;65510.19;5052589;28;20205;-58
2023/07/23 05:27:16;;;;;;;16.05;12.40;;;;;;;23.97;89.27;65517.94;5052290;28;20224;-55
2023/07/23 05:29:41;;;;;;;19.90;14.95;;;;;;;23.89;89.07;65509.63;5052219;28;20190;-54
2023/07/23 05:32:07;;;;;;;16.90;12.13;;;;;;;24.01;89.43;65527.53;5052011;28;20233;-55
2023/07/23 05:34:33;;;;;;;16.23;11.93;;;;;;;24.32;88.44;65556.22;5052257;28;20198;-55
2023/07/23 05:36:58;;;;;;;14.35;12.18;;;;;;;24.21;89.38;65544.56;5052251;28;20220;-55
2023/07/23 05:39:23;;;;;;;16.98;12.40;;;;;;;24.18;89.67;65541.78;5052383;28;20212;-55
2023/07/23 05:41:49;;;;;;;15.02;12.00;;;;;;;24.16;88.45;65539.03;5052065;28;20232;-54
2023/07/23 05:44:14;;;;;;;14.05;11.70;;;;;;;24.33;88.26;65557.31;5052235;28;20649;-55
2023/07/23 05:46:40;;;;;;;15.00;11.32;;;;;;;24.37;88.04;65564.34;5052399;28;20308;-56
2023/07/23 05:49:05;;;;;;;15.88;12.23;;;;;;;24.49;88.29;65577.63;5051954;28;20189;-54
2023/07/23 05:51:31;;;;;;;17.08;12.35;;;;;;;24.57;87.39;65587.06;5052245;28;20684;-55
2023/07/23 05:53:56;;;;;;;16.73;11.93;;;;;;;24.74;88.14;65602.81;5034594;28;20296;-57
2023/07/23 05:56:22;;;;;;;14.65;11.68;;;;;;;24.78;88.43;65607.81;5052273;28;20596;-55
2023/07/23 05:58:47;;;;;;;17.23;12.05;;;;;;;24.74;87.49;65602.81;5052281;28;20283;-56
2023/07/23 06:01:13;;;;;;;13.93;12.18;;;;;;;24.70;89.09;65598.38;5051913;28;20763;-56
2023/07/23 06:03:38;;;;;;;14.70;11.07;;;;;;;24.78;89.21;65612.41;5033938;28;20216;-54
2023/07/23 06:06:04;;;;;;;17.60;12.13;;;;;;;24.68;90.58;65596.72;5052102;28;20204;-55
2023/07/23 06:08:29;;;;;;;16.05;12.20;;;;;;;24.72;89.42;65600.59;5051838;28;20209;-55
2023/07/23 06:10:55;;;;;;;13.10;10.82;;;;;;;24.69;89.69;65599.81;5051818;28;20344;-59
2023/07/23 06:13:20;;;;;;;14.55;11.35;;;;;;;24.68;90.40;65596.72;5051875;28;20569;-56
2023/07/23 06:15:46;;;;;;;15.15;10.55;;;;;;;25.08;88.03;65643.13;5034048;28;20208;-54
2023/07/23 06:18:11;;;;;;;18.05;12.27;;;;;;;25.03;88.91;65637.03;5050267;28;20647;-55
2023/07/23 06:20:36;;;;;;;16.98;11.98;;;;;;;24.66;90.91;65594.50;5051715;28;20246;-55
2023/07/23 06:23:02;;;;;;;22.33;11.80;;;;;;;24.62;90.65;65592.63;5033763;28;20182;-55
2023/07/23 06:25:28;;;;;;;23.13;16.50;;;;;;;24.82;91.90;65611.69;5051497;28;20508;-59
2023/07/23 06:27:53;;;;;;;15.32;11.95;;;;;;;24.86;89.87;65616.69;5051386;28;20217;-55
2023/07/23 06:30:19;;;;;;;15.63;12.00;;;;;;;24.60;89.63;65590.41;5051477;28;20198;-54
2023/07/23 06:32:44;;;;;;;16.98;11.57;;;;;;;24.77;89.71;65608.72;5050193;28;20216;-56
2023/07/23 06:35:10;;;;;;;15.85;11.13;;;;;;;25.10;87.94;65642.75;5033481;28;20189;-55
2023/07/23 06:37:38;;;;;;;15.60;10.02;;;;;;;24.79;87.05;65608.91;5033731;28;20217;-55
2023/07/23 06:40:05;;;;;;;14.07;10.40;;;;;;;24.82;86.73;65614.84;5051141;28;20581;-55
2023/07/23 06:42:31;;;;;;;15.65;9.70;;;;;;;24.99;86.84;65631.09;5051177;28;20204;-55
2023/07/23 06:44:57;;;;;;;14.90;9.57;;;;;;;25.01;85.89;65634.81;5051145;28;20269;-55
2023/07/23 06:47:23;;;;;;;10.95;8.43;;;;;;;25.05;81.85;65636.66;5037229;22;20230;-56
2023/07/23 06:49:48;;;;;;;13.80;8.95;;;;;;;25.09;83.89;65641.66;5031322;28;20636;-56
2023/07/23 06:52:14;;;;;;;13.52;9.18;;;;;;;25.17;83.05;65653.09;5017386;28;20769;-54
2023/07/23 06:54:42;;;;;;;12.10;9.20;;;;;;;25.24;82.46;65660.31;5011612;28;20206;-55
2023/07/23 06:57:08;;;;;;;11.57;8.27;;;;;;;25.22;81.30;65655.53;5011275;28;20309;-56
2023/07/23 06:59:34;;;;;;;14.65;9.18;;;;;;;25.18;79.16;65651.66;5011319;28;20207;-54
2023/07/23 07:01:59;;;;;;;12.02;8.82;;;;;;;25.26;81.77;65659.97;5011512;28;20215;-54
2023/07/23 07:04:25;;;;;;;12.10;8.57;;;;;;;25.17;80.54;65649.97;5011294;28;20320;-56
2023/07/23 07:06:50;;;;;;;10.05;8.02;;;;;;;25.31;78.85;65666.06;5011070;28;20215;-59
2023/07/23 07:09:16;;;;;;;14.15;8.90;;;;;;;25.31;78.79;65666.06;5011513;28;20242;-54
2023/07/23 07:11:42;;;;;;;10.77;8.38;;;;;;;25.31;77.10;65666.06;5011136;28;20313;-55
2023/07/23 07:14:08;;;;;;;13.38;8.23;;;;;;;25.36;75.58;65668.47;5011270;28;20202;-55
2023/07/23 07:16:34;;;;;;;14.20;9.88;;;;;;;25.52;76.69;65686.25;5011311;28;20829;-59
2023/07/23 07:18:59;;;;;;;9.85;7.70;;;;;;;25.64;73.58;65705.31;5011181;28;20198;-54
2023/07/23 07:21:25;;;;;;;10.60;9.30;;;;;;;25.63;73.88;65701.59;5011494;28;20292;-54
2023/07/23 07:23:50;;;;;;;11.07;8.57;;;;;;;25.65;74.78;65700.69;4993570;28;20582;-55
2023/07/23 07:26:16;;;;;;;9.85;8.10;;;;;;;25.91;74.89;65734.16;5011145;28;20215;-56
2023/07/23 07:28:42;;;;;;;10.88;8.40;;;;;;;25.85;73.11;65724.94;5011020;28;20744;-55
2023/07/23 07:31:10;;;;;;;13.93;8.90;;;;;;;25.84;73.31;65721.25;5011051;28;20598;-55
2023/07/23 07:33:37;;;;;;;9.95;7.22;;;;;;;25.74;67.62;65713.25;5011184;28;20203;-55
2023/07/23 07:36:03;;;;;;;11.00;7.43;;;;;;;25.98;69.93;65739.91;5011021;28;20214;-56
2023/07/23 07:38:28;;;;;;;14.55;9.48;;;;;;;26.00;68.80;65742.13;5011144;28;20229;-55
2023/07/23 07:40:58;;;;;;;10.68;7.18;;;;;;;26.13;64.80;65754.03;5010793;28;20608;-54
2023/07/23 07:43:24;;;;;;;8.68;6.20;;;;;;;25.97;60.87;65736.22;5010873;28;20210;-56
2023/07/23 07:45:54;;;;;;;11.88;6.68;;;;;;;25.99;61.43;65741.03;5010863;28;20214;-60
2023/07/23 07:48:20;;;;;;;10.27;7.85;;;;;;;26.36;61.68;65781.59;5010904;28;20221;-56
2023/07/23 07:50:48;;;;;;;6.68;5.82;;;;;;;26.25;56.81;65769.94;5010643;28;20230;-56
2023/07/23 07:53:15;;;;;;;7.28;5.95;;;;;;;26.27;56.33;65774.75;5012276;28;20321;-57
2023/07/23 07:55:42;;;;;;;7.10;5.28;;;;;;;26.30;55.69;65775.47;4999442;28;20195;-59
2023/07/23 07:58:13;;;;;;;6.65;5.68;;;;;;;26.36;56.03;65782.13;5017098;28;20251;-55
2023/07/23 08:00:40;;;;;;;7.10;5.95;;;;;;;26.70;57.42;65818.81;5016143;28;20230;-55
2023/07/23 08:03:06;;;;;;;8.73;5.60;;;;;;;26.33;56.86;65778.25;4999562;28;20703;-55
2023/07/23 08:05:32;;;;;;;16.83;8.02;;;;;;;26.57;57.67;65804.91;5016050;28;20206;-61
2023/07/23 08:07:59;;;;;;;11.40;6.22;;;;;;;26.95;58.55;65846.59;5017010;28;20617;-56
2023/07/23 08:10:26;;;;;;;7.30;5.90;;;;;;;26.69;57.40;65817.69;5017250;28;20237;-56
2023/07/23 08:12:53;;;;;;;7.63;6.18;;;;;;;26.77;57.61;65827.16;5017116;28;20222;-55
2023/07/23 08:15:20;;;;;;;12.57;6.82;;;;;;;26.96;55.84;65847.72;5016894;28;20210;-56
2023/07/23 08:17:45;;;;;;;9.25;6.22;;;;;;;26.78;55.89;65827.72;4999627;28;20214;-54
2023/07/23 08:20:12;;;;;;;9.95;5.53;;;;;;;26.95;56.42;65849.19;5016907;28;20665;-56
2023/07/23 08:22:37;;;;;;;8.40;6.47;;;;;;;27.16;59.24;65869.97;5016788;28;20211;-55
2023/07/23 08:25:04;;;;;;;7.75;6.15;;;;;;;27.08;56.03;65855.88;5016732;28;20734;-53
2023/07/23 08:27:31;;;;;;;13.75;7.45;;;;;;;27.25;58.15;65883.09;5016885;28;20307;-55
2023/07/23 08:29:59;;;;;;;10.10;6.47;;;;;;;27.46;56.24;65902.78;5017096;28;20248;-65
2023/07/23 08:32:25;;;;;;;17.30;8.45;;;;;;;27.47;55.89;65901.88;5016815;28;20498;-55
2023/07/23 08:34:51;;;;;;;8.88;5.78;;;;;;;27.43;53.12;65900.53;5016823;28;20198;-55
2023/07/23 08:37:17;;;;;;;8.52;6.35;;;;;;;27.32;51.65;65887.75;5016880;28;20273;-54
2023/07/23 08:39:43;;;;;;;11.90;6.68;;;;;;;27.43;52.62;65902.59;5016720;28;20669;-54
2023/07/23 08:42:20;;;;;;;11.68;6.82;;;;;;;27.49;54.50;65906.13;5016908;28;20238;-56
2023/07/23 08:44:45;;;;;;;8.00;6.00;;;;;;;27.74;57.18;65934.47;5016793;28;20211;-55
2023/07/23 08:47:13;;;;;;;9.60;6.53;;;;;;;27.95;54.50;65952.69;5016492;28;20223;-54
2023/07/23 08:49:40;;;;;;;16.75;9.63;;;;;;;27.77;53.92;65937.25;5016630;28;20202;-54
2023/07/23 08:52:07;;;;;;;14.52;7.93;;;;;;;27.74;51.93;65934.47;5016821;28;20237;-55
2023/07/23 08:54:34;;;;;;;11.10;6.75;;;;;;;27.75;49.32;65938.19;5016449;28;20556;-55
2023/07/23 08:57:01;;;;;;;12.15;7.93;;;;;;;27.84;49.86;65943.00;5016795;28;20689;-55
2023/07/23 08:59:28;;;;;;;10.48;7.50;;;;;;;27.88;50.80;65946.88;5016236;28;20238;-56
2023/07/23 09:01:54;;;;;;;12.45;5.95;;;;;;;28.15;51.79;65979.53;5016628;28;20215;-55
2023/07/23 09:04:20;;;;;;;7.38;5.55;;;;;;;28.18;50.14;65980.84;5015838;28;20205;-55
2023/07/23 09:06:47;;;;;;;8.70;6.60;;;;;;;28.11;49.01;65975.66;5012324;28;20599;-56
2023/07/23 09:09:13;;;;;;;12.48;7.35;;;;;;;28.33;50.49;65996.41;5013348;28;20206;-55
2023/07/23 09:11:39;;;;;;;10.73;6.65;;;;;;;28.50;49.45;66017.94;5013004;28;20225;-55
2023/07/23 09:14:15;;;;;;;10.88;7.28;;;;;;;28.58;47.58;66026.88;4995470;28;20211;-59
2023/07/23 09:16:44;;;;;;;7.82;6.55;;;;;;;28.62;48.68;66028.72;5013364;28;20218;-55
2023/07/23 09:19:11;;;;;;;10.93;7.15;;;;;;;28.85;49.58;66056.91;5012896;28;20302;-55
2023/07/23 09:21:38;;;;;;;9.07;7.38;;;;;;;28.94;48.02;66064.34;5013193;28;20203;-54
2023/07/23 09:24:06;;;;;;;7.68;6.05;;;;;;;29.25;49.25;66101.47;5013246;28;20186;-55
2023/07/23 09:26:32;;;;;;;7.07;6.13;;;;;;;29.27;46.99;66103.16;5013117;28;20309;-57
2023/07/23 09:28:59;;;;;;;9.52;6.35;;;;;;;29.34;44.86;66110.94;5013049;28;20246;-55
2023/07/23 09:31:27;;;;;;;12.48;5.85;;;;;;;29.38;44.84;66118.56;5012887;28;20269;-57
2023/07/23 09:33:55;;;;;;;7.93;6.43;;;;;;;29.33;43.73;66110.38;5012772;28;20207;-58
2023/07/23 09:36:22;;;;;;;10.52;6.57;;;;;;;29.47;45.27;66123.38;4995468;28;20304;-55
2023/07/23 09:38:53;;;;;;;13.82;6.93;;;;;;;29.51;43.72;66129.88;5012827;28;20222;-57
2023/07/23 09:41:19;;;;;;;16.15;8.13;;;;;;;29.70;43.13;66151.59;5012451;28;20226;-56
2023/07/23 09:43:45;;;;;;;13.73;8.35;;;;;;;29.70;41.59;66149.00;5012637;28;20195;-58
2023/07/23 09:46:11;;;;;;;13.80;9.27;;;;;;;29.69;41.52;66149.94;5012432;28;20214;-56
2023/07/23 09:48:48;;;;;;;7.80;6.03;;;;;;;29.28;41.91;66101.66;5011119;28;20225;-55
2023/07/23 09:51:14;;;;;;;13.93;9.15;;;;;;;29.52;42.54;66128.38;5012382;28;20214;-55
2023/07/23 09:53:47;;;;;;;9.93;6.60;;;;;;;29.55;40.90;66131.72;5012427;28;20285;-54
2023/07/23 09:56:19;;;;;;;9.35;6.20;;;;;;;29.58;41.44;66135.06;5012545;28;20229;-55
2023/07/23 09:58:50;;;;;;;10.35;7.15;;;;;;;29.95;41.91;66178.34;5012341;28;20678;-54
2023/07/23 10:01:17;;;;;;;14.60;6.65;;;;;;;29.86;41.07;66168.88;5012560;28;20219;-55
2023/07/23 10:03:44;;;;;;;8.43;6.45;;;;;;;30.30;41.03;66214.78;5012304;28;20218;-55
2023/07/23 10:06:12;;;;;;;9.38;6.75;;;;;;;30.33;39.80;66220.72;5012580;28;20273;-56
2023/07/23 10:08:41;;;;;;;12.00;6.68;;;;;;;30.25;40.36;66212.34;5012115;28;20250;-56
2023/07/23 10:11:07;;;;;;;15.15;6.97;;;;;;;30.19;41.72;66202.50;5012401;28;20297;-55
2023/07/23 10:13:32;;;;;;;12.63;7.18;;;;;;;30.80;40.21;66269.97;5012470;28;20213;-57
2023/07/23 10:15:59;;;;;;;12.18;7.40;;;;;;;30.61;39.08;66249.34;5011770;28;20238;-54
2023/07/23 10:18:28;;;;;;;7.97;6.88;;;;;;;30.59;39.67;66247.66;5012322;28;20256;-54
2023/07/23 10:20:55;;;;;;;14.60;7.90;;;;;;;30.68;40.28;66260.28;5012161;28;20257;-55
2023/07/23 10:23:22;;;;;;;10.40;7.95;;;;;;;30.88;39.28;66278.91;5012079;28;20281;-56
2023/07/23 10:25:47;;;;;;;8.05;7.00;;;;;;;30.88;41.35;66278.91;5012080;28;20333;-55
2023/07/23 10:28:22;;;;;;;8.70;6.50;;;;;;;31.11;38.68;66305.09;5011815;28;20210;-55
2023/07/23 10:31:07;;;;;;;11.45;7.43;;;;;;;30.99;39.30;66291.72;5011770;28;20260;-54
2023/07/23 10:33:33;;;;;;;9.40;7.20;;;;;;;31.01;38.02;66290.81;5011573;28;20182;-55
2023/07/23 10:36:01;;;;;;;14.80;7.72;;;;;;;30.97;38.80;66289.50;5011900;28;20301;-54
2023/07/23 10:38:31;;;;;;;12.88;8.43;;;;;;;31.33;40.15;66329.09;5011851;28;20202;-55
2023/07/23 10:40:57;;;;;;;10.23;6.80;;;;;;;31.53;38.60;66350.88;5011961;28;20219;-55
2023/07/23 10:43:23;;;;;;;8.55;6.75;;;;;;;31.52;39.26;66347.13;5010381;28;20207;-54
2023/07/23 10:46:13;;;;;;;14.13;9.07;;;;;;;31.69;36.84;66368.72;5011879;28;20293;-54
2023/07/23 10:48:42;;;;;;;12.75;9.40;;;;;;;31.39;37.24;66333.75;4997514;28;20238;-55
2023/07/23 10:51:09;;;;;;;14.05;9.57;;;;;;;31.42;37.11;66339.16;5011623;28;20218;-55
2023/07/23 10:53:39;;;;;;;16.45;11.85;;;;;;;31.51;35.67;66348.63;5011539;28;20214;-55
2023/07/23 10:56:21;;;;;;;20.17;8.18;;;;;;;31.33;37.15;66329.09;5010431;28;20277;-57
2023/07/23 10:58:48;;;;;;;11.85;7.38;;;;;;;31.21;36.44;66318.31;5011641;28;20210;-56
2023/07/23 11:01:19;;;;;;;13.80;7.88;;;;;;;30.91;37.46;66285.41;5011538;28;20218;-55
2023/07/23 11:03:45;;;;;;;11.65;7.45;;;;;;;31.35;37.70;66334.47;5011622;28;20211;-57
2023/07/23 11:06:27;;;;;;;14.48;7.20;;;;;;;31.16;37.83;66307.53;4993826;28;20206;-54
2023/07/23 11:08:56;;;;;;;9.13;7.60;;;;;;;31.62;37.21;66361.47;5011226;28;20284;-54
2023/07/23 11:11:42;;;;;;;11.73;7.85;;;;;;;31.68;36.26;66367.59;5011546;28;20203;-54
2023/07/23 11:14:23;;;;;;;10.57;8.10;;;;;;;31.87;35.90;66386.75;5010894;28;20278;-55
2023/07/23 11:16:55;;;;;;;10.57;8.60;;;;;;;31.80;35.87;66378.38;4993764;28;20317;-56
2023/07/23 11:19:22;;;;;;;12.05;7.93;;;;;;;31.74;36.04;66374.28;5011055;28;20203;-55
2023/07/23 11:21:50;;;;;;;12.18;7.75;;;;;;;32.01;35.63;66405.00;5011151;28;20747;-55